Time;durP1;ratioP1;P1;durP2;ratioP2;P2;SDS_P1;SDS_P2;PMS_P1;PMS_P2;Temp;Humidity;BMP_temperature;BMP_pressure;BME280_temperature;BME280_humidity;BME280_pressure;Samples;Min_cycle;Max_cycle;Signal;HPM_P1;HPM_P2
2023/12/06 00:00:19;;;;;;;2.20;2.00;;;;;;;3.87;75.98;95577.28;4990004;28;20192;-69
2023/12/06 00:02:45;;;;;;;2.37;1.97;;;;;;;3.73;76.97;95573.38;4989495;28;20259;-69
2023/12/06 00:05:10;;;;;;;2.43;1.90;;;;;;;3.73;76.80;95572.50;4990171;28;20514;-69
2023/12/06 00:07:39;;;;;;;1.70;1.60;;;;;;;3.80;76.31;95568.81;4990140;28;20249;-70
2023/12/06 00:10:05;;;;;;;2.47;1.60;;;;;;;3.76;76.59;95575.03;4990170;28;20212;-69
2023/12/06 00:12:30;;;;;;;2.40;2.00;;;;;;;3.79;76.90;95574.91;4990131;28;20511;-70
2023/12/06 00:14:56;;;;;;;5.00;2.10;;;;;;;3.77;76.55;95571.53;4990224;28;20173;-70
2023/12/06 00:17:21;;;;;;;3.23;1.93;;;;;;;3.79;76.69;95572.31;4989524;28;20185;-68
2023/12/06 00:19:46;;;;;;;6.50;2.00;;;;;;;3.88;76.47;95571.19;4990022;28;20204;-69
2023/12/06 00:22:12;;;;;;;2.50;2.30;;;;;;;3.86;76.50;95581.63;4989114;28;20173;-70
2023/12/06 00:24:38;;;;;;;2.67;2.47;;;;;;;3.82;76.73;95567.88;4990063;28;20172;-70
2023/12/06 00:27:03;;;;;;;3.80;2.40;;;;;;;3.83;76.98;95573.94;4990880;28;20224;-70
2023/12/06 00:29:29;;;;;;;2.20;2.00;;;;;;;3.89;76.75;95575.47;4990849;28;20233;-70
2023/12/06 00:31:55;;;;;;;3.83;2.40;;;;;;;3.95;76.61;95573.56;4990095;28;20580;-70
2023/12/06 00:34:20;;;;;;;2.53;1.97;;;;;;;3.93;76.19;95566.72;5005183;28;20176;-69
2023/12/06 00:36:47;;;;;;;2.33;2.13;;;;;;;4.00;75.50;95571.66;5008097;28;21059;-69
2023/12/06 00:39:13;;;;;;;2.10;1.93;;;;;;;3.99;76.26;95582.06;5008028;28;20222;-69
2023/12/06 00:41:39;;;;;;;4.90;2.17;;;;;;;3.91;76.37;95578.88;5008320;28;20415;-70
2023/12/06 00:44:05;;;;;;;2.00;1.80;;;;;;;3.86;76.45;95578.19;5008071;28;20434;-69
2023/12/06 00:46:30;;;;;;;2.20;2.00;;;;;;;3.96;76.15;95577.84;5008095;28;20841;-70
2023/12/06 00:48:58;;;;;;;7.20;1.93;;;;;;;3.95;76.22;95581.34;5006075;28;20880;-69
2023/12/06 00:51:23;;;;;;;2.20;2.00;;;;;;;3.98;75.74;95591.63;5008442;28;20689;-70
2023/12/06 00:53:49;;;;;;;2.37;2.17;;;;;;;4.08;76.03;95591.34;5007942;28;20443;-70
2023/12/06 00:56:14;;;;;;;2.60;2.30;;;;;;;3.91;75.94;95587.50;5007655;28;20249;-70
2023/12/06 00:58:42;;;;;;;2.80;2.60;;;;;;;3.94;75.68;95579.63;5008089;28;20181;-68
2023/12/06 01:01:08;;;;;;;2.80;2.60;;;;;;;3.92;76.51;95584.03;5009458;28;20184;-70
2023/12/06 01:03:33;;;;;;;2.30;2.10;;;;;;;4.07;75.67;95589.66;5016355;28;20523;-70
2023/12/06 01:05:59;;;;;;;2.50;2.30;;;;;;;3.99;76.05;95588.16;5016683;28;20196;-70
2023/12/06 01:08:25;;;;;;;2.60;2.40;;;;;;;3.95;75.84;95596.91;5018140;28;20220;-70
2023/12/06 01:10:51;;;;;;;3.57;2.17;;;;;;;3.95;75.76;95594.31;5021012;28;20571;-70
2023/12/06 01:13:16;;;;;;;2.67;2.20;;;;;;;3.95;76.14;95594.31;5018527;28;20410;-69
2023/12/06 01:15:42;;;;;;;2.83;2.30;;;;;;;3.95;75.64;95602.09;5012291;28;20192;-70
2023/12/06 01:18:07;;;;;;;3.23;2.50;;;;;;;3.99;76.22;95601.13;5015647;28;20218;-71
2023/12/06 01:20:33;;;;;;;3.87;2.30;;;;;;;3.95;76.04;95609.06;5016836;28;20176;-70
2023/12/06 01:22:59;;;;;;;2.10;2.00;;;;;;;4.00;75.81;95609.75;5018061;28;20175;-69
2023/12/06 01:25:24;;;;;;;2.87;2.50;;;;;;;3.88;76.03;95613.56;5019460;28;20443;-70
2023/12/06 01:27:49;;;;;;;3.67;2.70;;;;;;;3.87;76.14;95603.22;5019887;28;20172;-72
2023/12/06 01:30:15;;;;;;;2.57;2.37;;;;;;;3.94;75.92;95613.38;5018601;28;20208;-70
2023/12/06 01:32:41;;;;;;;2.60;2.40;;;;;;;4.03;75.55;95601.88;5014797;28;20196;-70
2023/12/06 01:35:07;;;;;;;3.17;2.87;;;;;;;3.99;76.10;95601.13;4998508;28;20239;-70
2023/12/06 01:37:33;;;;;;;3.63;2.27;;;;;;;3.92;76.24;95622.97;5000799;28;20595;-70
2023/12/06 01:39:58;;;;;;;2.97;2.77;;;;;;;3.98;75.96;95607.19;4997924;28;20419;-70
2023/12/06 01:42:23;;;;;;;2.93;2.70;;;;;;;3.96;76.03;95621.97;4997553;28;20176;-70
2023/12/06 01:44:49;;;;;;;2.80;2.60;;;;;;;3.94;75.63;95615.97;4998094;28;20177;-69
2023/12/06 01:47:18;;;;;;;2.77;2.50;;;;;;;3.94;76.12;95613.38;4996992;28;20689;-70
2023/12/06 01:49:45;;;;;;;2.60;2.40;;;;;;;4.01;75.66;95617.47;4996159;28;20286;-71
2023/12/06 01:52:11;;;;;;;10.80;3.13;;;;;;;3.92;76.21;95617.78;4992632;28;20420;-70
2023/12/06 01:54:37;;;;;;;3.30;3.00;;;;;;;3.84;76.82;95618.91;4991558;28;21010;-69
2023/12/06 01:57:02;;;;;;;4.00;3.60;;;;;;;3.86;76.41;95620.56;4992273;28;20435;-70
2023/12/06 01:59:28;;;;;;;4.10;3.10;;;;;;;3.85;76.76;95621.47;4991575;28;20276;-70
2023/12/06 02:01:53;;;;;;;3.40;2.50;;;;;;;3.93;76.25;95627.25;4991197;28;20177;-70
2023/12/06 02:04:19;;;;;;;3.20;2.87;;;;;;;3.91;76.60;95630.81;4993007;28;20591;-70
2023/12/06 02:06:45;;;;;;;3.00;2.70;;;;;;;3.97;76.22;95618.50;4991977;28;20747;-70
2023/12/06 02:09:12;;;;;;;2.87;2.67;;;;;;;3.92;76.71;95628.16;4991665;28;20573;-69
2023/12/06 02:11:38;;;;;;;4.80;3.27;;;;;;;4.00;76.40;95627.94;4991237;28;20169;-70
2023/12/06 02:14:03;;;;;;;3.30;3.00;;;;;;;3.92;76.63;95629.88;4991291;28;20412;-70
2023/12/06 02:16:29;;;;;;;3.70;2.90;;;;;;;4.03;75.54;95627.81;4990562;28;20212;-69
2023/12/06 02:18:55;;;;;;;3.13;2.83;;;;;;;3.92;76.32;95622.97;4991265;28;20173;-70
2023/12/06 02:21:21;;;;;;;2.80;2.60;;;;;;;4.06;76.17;95635.50;4992315;28;20867;-70
2023/12/06 02:23:49;;;;;;;3.40;3.10;;;;;;;3.95;76.17;95638.44;4992376;28;20482;-70
2023/12/06 02:26:15;;;;;;;3.07;2.30;;;;;;;3.97;76.58;95630.63;4991896;28;20220;-70
2023/12/06 02:28:40;;;;;;;2.87;2.60;;;;;;;3.95;75.79;95633.25;4991502;28;20826;-70
2023/12/06 02:31:06;;;;;;;3.00;2.80;;;;;;;4.08;75.67;95633.72;4991264;28;20176;-70
2023/12/06 02:33:33;;;;;;;3.70;3.40;;;;;;;4.02;75.85;95626.13;4999543;28;20172;-69
2023/12/06 02:36:01;;;;;;;3.83;3.43;;;;;;;3.90;76.58;95636.88;5010161;28;20572;-70
2023/12/06 02:38:28;;;;;;;3.37;3.07;;;;;;;3.98;76.10;95638.34;5010069;28;20416;-70
2023/12/06 02:40:56;;;;;;;3.43;3.23;;;;;;;4.10;76.04;95636.28;5010186;28;20477;-69
2023/12/06 02:43:22;;;;;;;4.50;3.27;;;;;;;3.95;76.04;95630.66;5010865;28;20412;-70
2023/12/06 02:45:47;;;;;;;4.03;3.13;;;;;;;3.98;76.25;95630.56;5009824;28;21148;-70
2023/12/06 02:48:13;;;;;;;3.20;2.87;;;;;;;3.96;76.60;95634.09;5014905;28;20184;-71
2023/12/06 02:50:38;;;;;;;4.23;3.73;;;;;;;3.99;76.35;95636.59;5010099;28;20230;-69
2023/12/06 02:53:04;;;;;;;6.50;3.00;;;;;;;4.05;76.31;95636.41;5010597;28;20176;-70
2023/12/06 02:55:29;;;;;;;4.80;3.10;;;;;;;4.09;76.05;95634.59;5011835;28;20253;-70
2023/12/06 02:57:54;;;;;;;4.30;3.90;;;;;;;4.09;76.11;95630.25;5020240;28;20240;-69
2023/12/06 03:00:20;;;;;;;3.67;3.37;;;;;;;4.05;76.47;95626.03;5022008;28;20251;-69
2023/12/06 03:02:46;;;;;;;5.53;3.50;;;;;;;4.05;76.18;95639.00;5019484;28;20180;-68
2023/12/06 03:05:11;;;;;;;2.77;2.53;;;;;;;4.07;76.30;95634.63;5015734;28;20466;-68
2023/12/06 03:07:37;;;;;;;3.50;3.20;;;;;;;4.06;76.51;95645.06;5015700;28;20168;-68
2023/12/06 03:10:03;;;;;;;3.10;2.90;;;;;;;4.01;76.86;95637.41;5012893;28;20200;-68
2023/12/06 03:12:28;;;;;;;5.17;3.50;;;;;;;4.00;76.50;95640.91;5010947;28;20176;-70
2023/12/06 03:14:54;;;;;;;3.80;3.50;;;;;;;4.05;76.70;95639.00;5009717;28;20512;-71
2023/12/06 03:17:19;;;;;;;4.47;3.93;;;;;;;4.12;76.04;95630.13;5009286;28;20211;-70
2023/12/06 03:19:45;;;;;;;5.33;3.83;;;;;;;3.99;76.70;95634.88;5009368;28;20654;-70
2023/12/06 03:22:11;;;;;;;3.93;3.63;;;;;;;4.12;76.08;95634.50;5009618;28;20176;-70
2023/12/06 03:24:36;;;;;;;3.70;3.37;;;;;;;4.19;76.05;95630.81;5009208;28;20702;-70
2023/12/06 03:27:02;;;;;;;4.50;4.10;;;;;;;4.15;76.39;95635.22;5008946;28;20200;-70
2023/12/06 03:29:28;;;;;;;3.57;3.27;;;;;;;3.98;76.72;95633.16;5008862;28;20242;-70
2023/12/06 03:31:53;;;;;;;7.60;4.27;;;;;;;4.02;77.37;95633.94;5008966;28;21216;-70
2023/12/06 03:34:19;;;;;;;5.63;3.80;;;;;;;3.99;76.61;95636.59;4993727;28;20267;-70
2023/12/06 03:36:44;;;;;;;4.10;3.80;;;;;;;4.11;76.51;95633.66;4989177;28;20204;-69
2023/12/06 03:39:09;;;;;;;5.30;3.80;;;;;;;4.07;76.66;95631.19;4990271;28;20207;-69
2023/12/06 03:41:35;;;;;;;6.10;4.30;;;;;;;4.19;76.27;95629.06;4989517;28;20180;-69
2023/12/06 03:44:00;;;;;;;4.43;4.03;;;;;;;4.14;76.60;95638.72;4989101;28;20172;-70
2023/12/06 03:46:26;;;;;;;4.00;3.70;;;;;;;4.14;76.59;95635.28;4989223;28;20193;-69
2023/12/06 03:48:51;;;;;;;4.00;3.70;;;;;;;4.06;76.67;95639.84;4989280;28;20295;-69
2023/12/06 03:51:16;;;;;;;6.57;3.83;;;;;;;4.13;76.60;95623.19;4989395;28;20177;-68
2023/12/06 03:53:42;;;;;;;5.63;4.17;;;;;;;4.15;76.44;95627.44;4989045;28;20617;-70
2023/12/06 03:56:08;;;;;;;9.33;4.20;;;;;;;4.14;76.85;95625.75;4989081;28;20226;-70
2023/12/06 03:58:34;;;;;;;4.00;3.60;;;;;;;4.06;77.14;95632.06;4989236;28;20879;-72
2023/12/06 04:01:00;;;;;;;4.33;3.93;;;;;;;4.07;76.56;95631.19;4989251;28;20192;-71
2023/12/06 04:03:25;;;;;;;4.50;3.73;;;;;;;4.08;76.63;95633.72;4988808;28;20789;-70
2023/12/06 04:05:51;;;;;;;5.97;4.30;;;;;;;4.12;77.14;95637.09;4988568;28;20215;-70
2023/12/06 04:08:16;;;;;;;7.47;4.57;;;;;;;4.10;76.75;95639.72;4988784;28;20722;-70
2023/12/06 04:10:42;;;;;;;4.87;3.97;;;;;;;4.12;76.67;95640.53;4988943;28;20180;-70
2023/12/06 04:13:07;;;;;;;7.67;4.40;;;;;;;4.06;76.63;95634.66;4988801;28;20537;-70
2023/12/06 04:15:32;;;;;;;6.60;4.87;;;;;;;4.11;76.64;95643.16;4988420;28;20242;-70
2023/12/06 04:17:58;;;;;;;5.57;4.80;;;;;;;4.08;77.46;95645.84;4988508;28;20197;-70
2023/12/06 04:20:23;;;;;;;4.83;3.67;;;;;;;4.08;76.56;95648.47;4988481;28;20642;-70
2023/12/06 04:22:49;;;;;;;5.20;3.77;;;;;;;4.06;76.85;95643.31;4987572;28;20180;-69
2023/12/06 04:25:15;;;;;;;6.40;3.70;;;;;;;4.10;76.71;95646.66;4989266;28;20168;-69
2023/12/06 04:27:40;;;;;;;6.70;4.80;;;;;;;4.09;76.46;95650.16;4989086;28;20408;-70
2023/12/06 04:30:06;;;;;;;8.13;4.60;;;;;;;4.09;77.15;95655.38;4988731;28;20271;-70
2023/12/06 04:32:32;;;;;;;5.80;4.40;;;;;;;4.08;76.76;95651.91;4989574;28;20238;-71
2023/12/06 04:34:57;;;;;;;4.63;4.20;;;;;;;4.12;76.47;95657.84;5008449;28;21100;-70
2023/12/06 04:37:23;;;;;;;5.43;4.07;;;;;;;4.16;76.79;95664.66;5009321;28;20188;-68
2023/12/06 04:39:49;;;;;;;8.90;4.50;;;;;;;4.22;76.09;95667.06;5011525;28;20294;-69
2023/12/06 04:42:15;;;;;;;6.50;5.10;;;;;;;4.17;76.12;95663.75;5011735;28;20506;-68
2023/12/06 04:44:40;;;;;;;7.50;4.50;;;;;;;4.16;76.16;95665.50;5012772;28;20230;-70
2023/12/06 04:47:06;;;;;;;6.67;5.03;;;;;;;4.19;76.36;95669.75;5013937;28;21315;-70
2023/12/06 04:49:31;;;;;;;6.03;5.20;;;;;;;4.12;76.06;95669.09;5013894;28;20230;-71
2023/12/06 04:51:59;;;;;;;6.43;4.73;;;;;;;4.11;76.58;95674.31;5015358;28;20168;-70
2023/12/06 04:54:25;;;;;;;5.10;4.40;;;;;;;4.10;76.95;95676.06;5014515;28;20844;-70
2023/12/06 04:56:50;;;;;;;4.60;4.10;;;;;;;4.11;76.73;95675.19;5013747;28;20426;-72
2023/12/06 04:59:16;;;;;;;6.30;4.43;;;;;;;4.10;76.82;95681.25;5014118;28;20574;-70
2023/12/06 05:01:43;;;;;;;6.77;4.83;;;;;;;4.13;76.32;95680.31;5010087;28;20254;-70
2023/12/06 05:04:08;;;;;;;5.00;4.00;;;;;;;4.15;76.63;95689.75;5010921;28;20215;-70
2023/12/06 05:06:34;;;;;;;4.53;4.13;;;;;;;4.15;76.20;95694.09;5014342;28;20430;-69
2023/12/06 05:08:59;;;;;;;5.40;4.60;;;;;;;4.14;76.14;95688.06;5022716;28;20539;-69
2023/12/06 05:11:24;;;;;;;5.93;4.37;;;;;;;4.21;76.57;95688.75;5010038;28;20181;-70
2023/12/06 05:13:50;;;;;;;10.77;4.70;;;;;;;4.19;76.05;95688.78;5011301;28;20187;-69
2023/12/06 05:16:15;;;;;;;4.13;3.73;;;;;;;4.21;76.25;95684.41;5014999;28;20196;-70
2023/12/06 05:18:40;;;;;;;6.17;4.50;;;;;;;4.14;76.29;95687.22;4987273;28;20741;-70
2023/12/06 05:21:06;;;;;;;6.30;4.77;;;;;;;4.23;76.66;95689.56;5000247;28;20177;-69
2023/12/06 05:23:31;;;;;;;5.30;3.87;;;;;;;4.27;76.48;95682.50;5012305;28;20291;-69
2023/12/06 05:25:57;;;;;;;5.40;4.00;;;;;;;4.21;76.35;95686.16;5009748;28;20196;-69
2023/12/06 05:28:22;;;;;;;4.13;3.73;;;;;;;4.21;76.40;95680.94;5009672;28;20183;-69
2023/12/06 05:30:47;;;;;;;9.20;3.60;;;;;;;4.24;75.83;95681.69;5009725;28;20187;-71
2023/12/06 05:33:13;;;;;;;7.60;3.97;;;;;;;4.27;75.76;95680.75;5001072;28;20183;-70
2023/12/06 05:35:38;;;;;;;5.27;3.50;;;;;;;4.29;75.90;95686.75;4988041;28;20324;-70
2023/12/06 05:38:04;;;;;;;3.53;3.20;;;;;;;4.23;76.31;95687.78;4987278;28;20173;-70
2023/12/06 05:40:30;;;;;;;6.57;3.80;;;;;;;4.28;76.31;95685.06;4987730;28;20175;-71
2023/12/06 05:42:56;;;;;;;5.07;4.57;;;;;;;4.25;76.80;95687.72;4987072;28;20196;-70
2023/12/06 05:45:21;;;;;;;3.47;3.17;;;;;;;4.28;76.21;95682.47;4992987;28;20848;-69
2023/12/06 05:47:46;;;;;;;5.57;5.00;;;;;;;4.27;76.20;95685.09;4987993;28;20668;-72
2023/12/06 05:50:13;;;;;;;3.83;3.47;;;;;;;4.21;76.16;95679.19;4988245;28;20572;-70
2023/12/06 05:52:38;;;;;;;3.43;3.13;;;;;;;4.03;77.52;95688.38;4988587;28;20169;-69
2023/12/06 05:55:05;;;;;;;3.73;3.37;;;;;;;4.19;76.67;95688.78;5003237;28;20439;-71
2023/12/06 05:57:31;;;;;;;4.70;4.30;;;;;;;4.21;76.67;95688.75;5009051;28;20176;-70
2023/12/06 05:59:58;;;;;;;6.00;4.13;;;;;;;4.29;75.79;95688.50;5003828;28;20474;-70
2023/12/06 06:02:23;;;;;;;3.87;3.57;;;;;;;4.27;76.56;95688.53;5007043;28;20431;-70
2023/12/06 06:04:49;;;;;;;3.03;2.83;;;;;;;4.23;76.54;95692.16;5009632;28;20462;-73
2023/12/06 06:07:14;;;;;;;3.43;3.10;;;;;;;4.16;76.50;95690.63;5010825;28;20196;-70
2023/12/06 06:09:39;;;;;;;4.83;3.40;;;;;;;4.13;77.05;95696.75;4998949;28;20275;-71
2023/12/06 06:12:07;;;;;;;5.87;3.43;;;;;;;4.26;76.48;95696.41;5007140;28;20188;-70
2023/12/06 06:14:33;;;;;;;4.67;3.67;;;;;;;4.23;76.15;95705.97;5008466;28;20207;-71
2023/12/06 06:16:59;;;;;;;3.97;3.40;;;;;;;4.29;76.04;95699.72;5005739;28;20471;-71
2023/12/06 06:19:24;;;;;;;3.90;3.60;;;;;;;4.26;76.51;95699.84;5008766;28;20431;-71
2023/12/06 06:21:50;;;;;;;7.97;4.30;;;;;;;4.28;76.15;95702.41;5007578;28;20184;-72
2023/12/06 06:24:15;;;;;;;7.47;3.80;;;;;;;4.32;76.50;95702.22;5006490;28;20183;-71
2023/12/06 06:26:40;;;;;;;4.37;3.50;;;;;;;4.34;76.33;95704.78;5001414;28;20628;-70
2023/12/06 06:29:07;;;;;;;4.20;3.80;;;;;;;4.31;76.08;95703.13;5010686;28;20204;-70
2023/12/06 06:31:33;;;;;;;4.17;3.40;;;;;;;4.33;76.36;95709.13;5010227;28;20192;-70
2023/12/06 06:34:01;;;;;;;8.13;3.80;;;;;;;4.29;76.20;95710.13;4996687;28;20408;-71
2023/12/06 06:36:27;;;;;;;4.27;3.43;;;;;;;4.32;76.20;95711.78;4990796;28;20440;-71
2023/12/06 06:38:52;;;;;;;5.67;4.30;;;;;;;4.26;76.82;95712.81;4991000;28;20523;-70
2023/12/06 06:41:18;;;;;;;6.83;4.70;;;;;;;4.35;76.67;95720.34;4992879;28;20184;-71
2023/12/06 06:43:43;;;;;;;5.80;4.00;;;;;;;4.31;76.61;95717.88;4999194;28;20177;-71
2023/12/06 06:46:09;;;;;;;8.70;4.47;;;;;;;4.30;76.02;95719.63;4999849;28;20201;-71
2023/12/06 06:48:34;;;;;;;4.80;3.50;;;;;;;4.29;76.07;95717.91;4998000;28;20200;-72
2023/12/06 06:50:59;;;;;;;5.23;4.60;;;;;;;4.36;76.33;95723.78;4991029;28;20527;-69
2023/12/06 06:53:25;;;;;;;18.90;10.70;;;;;;;4.32;76.42;95722.16;4993263;28;20268;-70
2023/12/06 06:55:50;;;;;;;7.80;6.47;;;;;;;4.39;76.44;95731.47;4992756;28;20209;-71
2023/12/06 06:58:16;;;;;;;5.57;4.60;;;;;;;4.37;75.46;95728.94;4992466;28;20252;-71
2023/12/06 07:00:41;;;;;;;6.10;5.50;;;;;;;4.49;75.72;95721.66;4991941;28;20223;-71
2023/12/06 07:03:06;;;;;;;8.07;5.10;;;;;;;4.40;76.10;95728.84;4989986;28;20224;-71
2023/12/06 07:05:32;;;;;;;6.93;4.70;;;;;;;4.47;75.72;95739.06;4990498;28;20231;-71
2023/12/06 07:07:58;;;;;;;5.67;5.07;;;;;;;4.47;75.47;95741.66;4989632;28;20537;-70
2023/12/06 07:10:24;;;;;;;6.90;5.83;;;;;;;4.48;75.56;95746.78;4989820;28;20236;-70
2023/12/06 07:12:49;;;;;;;6.67;5.37;;;;;;;4.43;76.12;95743.47;4989383;28;20428;-69
2023/12/06 07:15:15;;;;;;;5.70;4.93;;;;;;;4.46;75.37;95743.38;4990641;28;20497;-70
2023/12/06 07:17:43;;;;;;;7.33;5.67;;;;;;;4.32;76.09;95761.13;4990805;28;20195;-72
2023/12/06 07:20:11;;;;;;;6.80;6.17;;;;;;;4.37;75.92;95751.44;4990975;28;20817;-70
2023/12/06 07:22:37;;;;;;;9.20;6.53;;;;;;;4.35;76.42;95755.84;4991238;28;20842;-71
2023/12/06 07:25:02;;;;;;;7.30;5.80;;;;;;;4.44;75.92;95752.97;4990513;28;20519;-69
2023/12/06 07:27:28;;;;;;;7.50;6.60;;;;;;;4.50;75.56;95754.53;4990921;28;20510;-70
2023/12/06 07:29:53;;;;;;;6.50;5.50;;;;;;;4.46;75.49;95753.75;4990375;28;20805;-70
2023/12/06 07:32:18;;;;;;;11.17;5.57;;;;;;;4.52;75.67;95757.94;4990936;28;20208;-70
2023/12/06 07:34:44;;;;;;;8.37;6.27;;;;;;;4.45;75.15;95762.47;5009355;28;20176;-70
2023/12/06 07:37:09;;;;;;;8.27;7.47;;;;;;;4.45;75.32;95765.06;5014738;28;20192;-70
2023/12/06 07:39:34;;;;;;;6.00;5.40;;;;;;;4.48;75.53;95761.53;5016678;28;20187;-71
2023/12/06 07:42:00;;;;;;;6.13;5.47;;;;;;;4.48;75.40;95766.72;5016956;28;20183;-70
2023/12/06 07:44:25;;;;;;;20.63;6.93;;;;;;;4.53;75.15;95770.88;5016086;28;20563;-71
2023/12/06 07:46:50;;;;;;;23.57;7.40;;;;;;;4.60;75.06;95763.75;5016886;28;20192;-71
2023/12/06 07:49:16;;;;;;;10.90;6.10;;;;;;;4.49;75.13;95764.09;5016950;28;20204;-70
2023/12/06 07:51:41;;;;;;;10.07;5.33;;;;;;;4.52;74.62;95764.00;5017001;28;20736;-71
2023/12/06 07:54:06;;;;;;;20.07;6.53;;;;;;;4.45;75.10;95765.91;5012216;28;20237;-70
2023/12/06 07:56:33;;;;;;;6.10;5.50;;;;;;;4.38;75.34;95769.59;5009345;28;20710;-70
2023/12/06 07:58:58;;;;;;;10.40;5.60;;;;;;;4.53;74.57;95770.88;5009737;28;20613;-72
2023/12/06 08:01:27;;;;;;;13.87;7.17;;;;;;;4.52;74.59;95776.13;5009800;28;20434;-71
2023/12/06 08:03:54;;;;;;;5.37;4.87;;;;;;;4.58;75.01;95769.00;5009655;28;20168;-71
2023/12/06 08:06:19;;;;;;;5.17;4.67;;;;;;;4.59;74.54;95775.06;5009077;28;20434;-71
2023/12/06 08:08:45;;;;;;;4.97;4.27;;;;;;;4.58;73.96;95781.13;5009941;28;20200;-70
2023/12/06 08:11:10;;;;;;;5.80;4.60;;;;;;;4.64;74.11;95775.75;5009960;28;20172;-71
2023/12/06 08:13:35;;;;;;;4.80;4.20;;;;;;;4.65;74.34;95785.25;5009636;28;20628;-70
2023/12/06 08:16:01;;;;;;;8.57;4.87;;;;;;;4.73;73.71;95783.28;5008936;28;20210;-69
2023/12/06 08:18:26;;;;;;;5.50;4.03;;;;;;;4.68;73.65;95777.38;5009368;28;20168;-70
2023/12/06 08:20:51;;;;;;;5.03;4.53;;;;;;;4.59;74.69;95785.44;5010703;28;20192;-71
2023/12/06 08:23:17;;;;;;;5.47;4.97;;;;;;;4.67;74.75;95791.25;5012183;28;20643;-71
2023/12/06 08:25:42;;;;;;;10.20;4.37;;;;;;;4.69;74.22;95786.84;5011253;28;20853;-70
2023/12/06 08:28:08;;;;;;;4.67;4.23;;;;;;;4.67;74.30;95793.84;5008889;28;20176;-69
2023/12/06 08:30:33;;;;;;;6.17;4.00;;;;;;;4.82;73.38;95798.59;5004561;28;20507;-69
2023/12/06 08:32:59;;;;;;;6.60;4.70;;;;;;;4.81;73.18;95806.41;5001305;28;20204;-69
2023/12/06 08:35:24;;;;;;;4.47;4.07;;;;;;;4.78;73.73;95796.97;4994285;28;20197;-70
2023/12/06 08:37:50;;;;;;;5.80;5.20;;;;;;;4.77;74.03;95810.00;4998760;28;20195;-71
2023/12/06 08:40:15;;;;;;;7.03;4.23;;;;;;;4.85;73.79;95808.88;4999898;28;20231;-68
2023/12/06 08:42:41;;;;;;;4.97;4.57;;;;;;;4.84;73.61;95809.78;5001710;28;20261;-67
2023/12/06 08:45:08;;;;;;;10.53;5.20;;;;;;;4.83;73.94;95818.47;5003753;28;20252;-67
2023/12/06 08:47:34;;;;;;;10.03;4.67;;;;;;;4.86;74.05;95815.75;5009603;28;20196;-66
2023/12/06 08:49:59;;;;;;;5.57;5.07;;;;;;;4.92;73.46;95817.34;5007003;28;20459;-69
2023/12/06 08:52:25;;;;;;;6.77;4.57;;;;;;;4.84;73.38;95822.78;5006002;28;20180;-67
2023/12/06 08:54:50;;;;;;;5.70;4.97;;;;;;;4.90;73.64;95821.75;4997887;28;20176;-70
2023/12/06 08:57:15;;;;;;;7.57;4.70;;;;;;;5.01;72.98;95837.88;4993182;28;20207;-68
2023/12/06 08:59:41;;;;;;;6.33;5.73;;;;;;;5.03;73.19;95841.28;5005336;28;20164;-69
2023/12/06 09:02:06;;;;;;;10.77;5.50;;;;;;;5.04;73.34;95842.97;5006464;28;20168;-68
2023/12/06 09:04:32;;;;;;;8.20;5.40;;;;;;;5.00;73.42;95841.34;5006148;28;20184;-68
2023/12/06 09:06:57;;;;;;;8.17;5.47;;;;;;;5.01;72.80;95848.25;5005904;28;20282;-67
2023/12/06 09:09:23;;;;;;;4.60;4.20;;;;;;;5.00;73.01;95843.09;5006360;28;20207;-67
2023/12/06 09:11:48;;;;;;;4.90;4.50;;;;;;;5.01;73.28;95843.06;5006090;28;20275;-69
2023/12/06 09:14:13;;;;;;;7.23;5.93;;;;;;;5.11;73.42;95843.63;5006267;28;20180;-69
2023/12/06 09:16:41;;;;;;;5.70;5.20;;;;;;;5.09;72.92;95841.06;5005908;28;20214;-70
2023/12/06 09:19:07;;;;;;;5.90;5.40;;;;;;;5.22;72.42;95846.75;5006349;28;20172;-70
2023/12/06 09:21:47;;;;;;;9.27;5.90;;;;;;;5.11;72.70;95843.63;5006225;28;20426;-67
2023/12/06 09:24:14;;;;;;;5.93;5.17;;;;;;;5.08;72.59;95841.97;5006046;28;20172;-67
2023/12/06 09:26:40;;;;;;;9.40;5.43;;;;;;;5.21;71.83;95839.81;5003869;28;20442;-68
2023/12/06 09:29:09;;;;;;;5.80;5.20;;;;;;;5.18;72.15;95842.53;5008571;28;20454;-68
2023/12/06 09:31:36;;;;;;;8.83;5.10;;;;;;;5.21;72.66;95847.63;5009799;28;20415;-66
2023/12/06 09:34:03;;;;;;;7.60;5.30;;;;;;;5.29;72.14;95847.38;5009386;28;20790;-68
2023/12/06 09:36:29;;;;;;;5.13;4.53;;;;;;;5.21;72.64;95842.44;5009433;28;21093;-68
2023/12/06 09:38:56;;;;;;;8.60;5.17;;;;;;;5.13;73.34;95841.00;5009495;28;20429;-68
2023/12/06 09:41:26;;;;;;;5.60;5.03;;;;;;;5.13;73.02;95849.63;5009234;28;20179;-68
2023/12/06 09:43:52;;;;;;;7.10;5.27;;;;;;;5.25;72.57;95845.78;5009327;28;20415;-68
2023/12/06 09:46:17;;;;;;;5.23;4.77;;;;;;;5.29;71.83;95845.66;5008778;28;21004;-68
2023/12/06 09:48:43;;;;;;;5.07;4.57;;;;;;;5.35;71.78;95838.53;5007712;28;20199;-68
2023/12/06 09:51:08;;;;;;;12.23;4.73;;;;;;;5.29;72.46;95845.66;5002608;28;20674;-68
2023/12/06 09:53:35;;;;;;;9.43;4.30;;;;;;;5.39;71.98;95843.59;5009337;28;20689;-68
2023/12/06 09:56:01;;;;;;;11.00;4.77;;;;;;;5.36;72.02;95843.69;5008765;28;20269;-67
2023/12/06 09:58:27;;;;;;;12.33;4.20;;;;;;;5.36;71.92;95851.47;5009368;28;20477;-66
2023/12/06 10:00:52;;;;;;;8.77;4.30;;;;;;;5.42;71.51;95842.66;5009474;28;20415;-67
2023/12/06 10:03:21;;;;;;;11.93;4.87;;;;;;;5.43;70.76;95850.41;5009493;28;20168;-68
2023/12/06 10:05:54;;;;;;;6.53;3.80;;;;;;;5.39;71.67;95856.63;5008700;28;20539;-69
2023/12/06 10:08:20;;;;;;;10.67;5.03;;;;;;;5.40;72.16;95849.66;5001500;28;20416;-68
2023/12/06 10:10:45;;;;;;;6.20;4.80;;;;;;;5.43;71.47;95845.22;5006796;28;20916;-68
2023/12/06 10:13:10;;;;;;;10.63;4.50;;;;;;;5.48;71.30;95845.91;5008478;28;20589;-68
2023/12/06 10:15:39;;;;;;;6.40;4.50;;;;;;;5.56;71.27;95845.66;5008461;28;20279;-67
2023/12/06 10:18:05;;;;;;;5.50;4.63;;;;;;;5.56;71.23;95847.41;5008124;28;20180;-69
2023/12/06 10:20:30;;;;;;;4.70;4.30;;;;;;;5.58;70.67;95845.59;5008581;28;20440;-68
2023/12/06 10:22:56;;;;;;;4.70;3.60;;;;;;;5.60;71.21;95846.38;5008597;28;20210;-68
2023/12/06 10:25:22;;;;;;;5.07;4.57;;;;;;;5.57;70.78;95847.34;5008225;28;20633;-68
2023/12/06 10:27:48;;;;;;;4.60;3.60;;;;;;;5.67;70.58;95846.16;5008554;28;20554;-68
2023/12/06 10:30:22;;;;;;;4.20;3.80;;;;;;;5.65;70.61;95852.31;5008466;28;20459;-68
2023/12/06 10:32:49;;;;;;;3.43;3.13;;;;;;;5.50;71.31;95853.63;5008682;28;20262;-68
2023/12/06 10:35:17;;;;;;;4.27;3.87;;;;;;;5.50;71.23;95846.72;4996376;28;21155;-68
2023/12/06 10:37:42;;;;;;;3.80;3.40;;;;;;;5.68;70.63;95853.03;4989186;28;20448;-68
2023/12/06 10:40:09;;;;;;;3.33;3.03;;;;;;;5.76;70.53;95850.16;4988152;28;20509;-68
2023/12/06 10:42:36;;;;;;;5.13;4.60;;;;;;;5.75;70.57;95855.44;4989348;28;20176;-69
2023/12/06 10:45:03;;;;;;;3.53;3.20;;;;;;;5.71;70.63;95862.50;4988810;28;20416;-67
2023/12/06 10:47:33;;;;;;;7.10;3.60;;;;;;;5.83;70.59;95854.25;4988115;28;20416;-68
2023/12/06 10:50:00;;;;;;;6.83;3.70;;;;;;;5.81;70.80;95852.63;4988457;28;20886;-68
2023/12/06 10:52:28;;;;;;;3.87;3.57;;;;;;;5.88;70.44;95854.13;4988650;28;20421;-68
2023/12/06 10:54:55;;;;;;;4.70;3.47;;;;;;;5.90;70.27;95862.72;4989625;28;20553;-69
2023/12/06 10:57:21;;;;;;;5.50;3.70;;;;;;;5.86;69.92;95866.34;4992775;28;20479;-69
2023/12/06 10:59:47;;;;;;;13.83;4.00;;;;;;;5.82;70.18;95860.38;4993193;28;20416;-69
2023/12/06 11:02:12;;;;;;;4.97;3.87;;;;;;;5.81;70.48;95855.22;4992217;28;20427;-68
2023/12/06 11:04:42;;;;;;;7.17;3.87;;;;;;;5.82;69.94;95859.53;4993461;28;20188;-68
2023/12/06 11:07:14;;;;;;;3.93;3.53;;;;;;;5.78;70.29;95855.34;4992996;28;20232;-68
2023/12/06 11:09:55;;;;;;;4.10;3.50;;;;;;;5.75;70.32;95856.28;4992233;28;20467;-68
2023/12/06 11:12:45;;;;;;;5.50;3.63;;;;;;;5.94;69.46;95856.56;4993008;28;20778;-68
2023/12/06 11:15:11;;;;;;;3.73;3.33;;;;;;;5.88;69.71;95862.81;4991716;28;20396;-68
2023/12/06 11:18:00;;;;;;;14.23;6.57;;;;;;;5.79;70.22;95860.50;4992457;28;20430;-69
2023/12/06 11:20:26;;;;;;;9.63;4.80;;;;;;;5.84;69.71;95862.94;4991489;28;20251;-68
2023/12/06 11:22:52;;;;;;;15.20;4.80;;;;;;;5.86;69.66;95866.34;4991015;28;20562;-70
2023/12/06 11:25:19;;;;;;;14.03;4.77;;;;;;;5.86;70.08;95862.00;4992518;28;20563;-69
2023/12/06 11:27:44;;;;;;;11.20;4.30;;;;;;;5.80;69.63;95861.34;4992464;28;20508;-69
2023/12/06 11:30:19;;;;;;;7.77;4.63;;;;;;;5.78;70.23;95863.16;5001799;28;20467;-68
2023/12/06 11:32:45;;;;;;;8.87;4.20;;;;;;;5.75;70.63;95863.25;4999244;28;20191;-67
2023/12/06 11:35:11;;;;;;;9.77;5.07;;;;;;;5.83;69.88;95862.06;4994115;28;20990;-68